Terminal Aerodrome Forecast
Issued by NWS Sioux Falls, SD

Home | Current Version | Previous Version | Text Only | Print | Product List | Glossary On
Versions: 1 2 3 4 5 6 7 8 9 10 11 12 13 14 15 16 17 18 19 20 21 22 23 24
861
FTUS43 KFSD 241138
TAFFSD
TAF
KFSD 241138Z 2412/2512 17005KT P6SM OVC110 WS010/19035KT
     FM241400 17011KT P6SM SCT250
     FM241800 20013KT P6SM -SHRA BKN080
     FM250000 32008KT 6SM SHRA OVC030
     FM250300 35006KT 6SM SHRA OVC015
     FM250600 34006KT 4SM SHRA OVC005=

USA.gov is the U.S. government's official web portal to all federal, state and local government web resources and services.